• Join FlightAware (Why Join?)
  • Login
  • US Flag 
11:55AM EST


 

Airport Tracker/Info


-or-


 

Live Flight TrackerFlight Track Log ✈ UCA4846 ✈ 01-Feb-2014 ✈ KMDT - KEWR

Flight Track Log - Related Links

Times and Time Zones

All times are in EST time to prevent confusion due to time zone crossing. See the UCA4846 flight status page for this flight to view local times or setup timezone preferences in your user account.

Time Position Orientation Groundspeed Altitude Reporting Facility
EST Latitude Longitude Course Direction KTS MPH feet Rate Location/Type
06:02AM 40.4036 -76.3058 66° East  Level FlightAware Approximate
06:03AM 40.4346 -76.2128 66° East  Level FlightAware Approximate
06:04AM 40.4622 -76.1180 72° East  Level FlightAware Approximate
06:05AM 40.4783 -76.0188 79° East  Level FlightAware Approximate
06:06AM 40.5005 -75.9219 70° East  Level FlightAware Approximate
06:07AM 40.5271 -75.8264 70° East  Level FlightAware Approximate
06:08AM 40.5535 -75.7309 70° East  Level FlightAware Approximate
06:09AM 40.5892 -75.6417 54° Northeast  Level FlightAware Approximate
06:10AM 40.6340 -75.5588 55° Northeast  Level FlightAware Approximate
06:11AM 40.6788 -75.4758 55° Northeast  Level FlightAware Approximate
06:12AM 40.7235 -75.3927 55° Northeast  Level FlightAware Approximate
06:13AM 40.7682 -75.3094 55° Northeast  Level FlightAware Approximate
06:14AM 40.8112 -75.2247 60° Northeast  Level FlightAware Approximate
06:15AM 40.8504 -75.1367 60° Northeast  Level FlightAware Approximate
06:15AM 40.6833 -75.2667 96° East 265 305 6,100  Level New York TRACON
06:16AM 40.8508 -75.0442 111° Southeast  Level FlightAware Approximate
06:16AM 40.7000 -75.1833 75° East 262 302 6,100  Level New York TRACON
06:17AM 40.8235 -74.9486 111° Southeast  Level FlightAware Approximate
06:17AM 40.7333 -75.1000 62° Northeast 261 300 6,000  Level New York TRACON
06:18AM 40.7985 -74.8622 114° Southeast  Level FlightAware Approximate
06:18AM 40.7500 -75.0167 75° East 263 303 6,000  Level New York TRACON
06:19AM 40.7798 -74.7742 96° East  Level FlightAware Approximate
06:19AM 40.7667 -74.9167 78° East 266 306 6,000  Level New York TRACON
06:20AM 40.7722 -74.6823 96° East  Level FlightAware Approximate
06:20AM 40.7833 -74.8167 78° East 261 300 5,700  Level New York TRACON
06:21AM 40.8000 -74.7333 75° East 248 285 5,100 -420 Descending New York TRACON
06:22AM 40.8167 -74.6667 72° East 245 282 5,000 -60 Descending New York TRACON
06:23AM 40.8333 -74.5667 78° East 258 297 5,000 -120 Level New York TRACON
06:24AM 40.8500 -74.4833 75° East 260 299 4,800 -480 Descending New York TRACON
06:25AM 40.8667 -74.4000 75° East 252 290 4,100 -480 Descending New York TRACON
06:26AM 40.8833 -74.3167 75° East 250 288 4,000 -60 Descending New York TRACON
06:27AM 40.9000 -74.2333 75° East 237 273 4,000 -180 Level New York TRACON
06:28AM 40.9167 -74.1500 75° East 237 273 3,700 -480 Descending New York TRACON
06:29AM 40.8833 -74.1000 131° Southeast 232 267 3,100 -360 Descending New York TRACON
06:30AM 40.8167 -74.0833 169° South 217 250 3,000 -540 Descending New York TRACON
06:31AM 40.7833 -74.1167 217° Southwest 196 226 2,000 -1,140 Descending New York TRACON
06:32AM 40.7333 -74.1333 194° South 149 171 900 -900 Descending New York TRACON
06:33AM 40.7000 -74.1500 201° Southwest 117 135 300 -720 Descending New York TRACON
06:35AM 40.6833 -74.1667 185° South  Level FlightAware Approximate
06:42AM 40.6925 -74.1687 185° South  Level Estimated